sensor_id;sensor_type;location;lat;lon;timestamp;P1;durP1;ratioP1;P2;durP2;ratioP2
71667;SDS011;59504;54.806;9.640;2022-08-03T00:00:07;11.07;;;5.47;;
71667;SDS011;59504;54.806;9.640;2022-08-03T00:02:08;16.48;;;5.22;;
71667;SDS011;59504;54.806;9.640;2022-08-03T00:04:09;12.55;;;5.03;;
71667;SDS011;59504;54.806;9.640;2022-08-03T00:06:11;11.80;;;4.40;;
71667;SDS011;59504;54.806;9.640;2022-08-03T00:08:13;15.10;;;5.97;;
71667;SDS011;59504;54.806;9.640;2022-08-03T00:10:13;14.43;;;4.88;;
71667;SDS011;59504;54.806;9.640;2022-08-03T00:12:14;9.55;;;5.22;;
71667;SDS011;59504;54.806;9.640;2022-08-03T00:14:15;9.48;;;5.30;;
71667;SDS011;59504;54.806;9.640;2022-08-03T00:16:15;6.18;;;4.88;;
71667;SDS011;59504;54.806;9.640;2022-08-03T00:18:16;9.48;;;5.40;;
71667;SDS011;59504;54.806;9.640;2022-08-03T00:20:17;10.88;;;5.38;;
71667;SDS011;59504;54.806;9.640;2022-08-03T00:22:18;7.93;;;5.32;;
71667;SDS011;59504;54.806;9.640;2022-08-03T00:24:18;9.70;;;5.60;;
71667;SDS011;59504;54.806;9.640;2022-08-03T00:26:19;8.93;;;4.88;;
71667;SDS011;59504;54.806;9.640;2022-08-03T00:28:21;15.52;;;5.40;;
71667;SDS011;59504;54.806;9.640;2022-08-03T00:30:22;14.70;;;6.05;;
71667;SDS011;59504;54.806;9.640;2022-08-03T00:32:22;10.95;;;5.25;;
71667;SDS011;59504;54.806;9.640;2022-08-03T00:34:23;13.35;;;5.13;;
71667;SDS011;59504;54.806;9.640;2022-08-03T00:36:23;10.40;;;5.68;;
71667;SDS011;59504;54.806;9.640;2022-08-03T00:38:24;15.93;;;5.20;;
71667;SDS011;59504;54.806;9.640;2022-08-03T00:40:25;13.18;;;5.57;;
71667;SDS011;59504;54.806;9.640;2022-08-03T00:42:26;13.80;;;5.40;;
71667;SDS011;59504;54.806;9.640;2022-08-03T00:44:27;13.27;;;5.47;;
71667;SDS011;59504;54.806;9.640;2022-08-03T00:46:27;10.50;;;6.05;;
71667;SDS011;59504;54.806;9.640;2022-08-03T00:48:28;8.15;;;5.60;;
71667;SDS011;59504;54.806;9.640;2022-08-03T00:50:29;12.80;;;5.88;;
71667;SDS011;59504;54.806;9.640;2022-08-03T00:52:34;9.73;;;4.95;;
71667;SDS011;59504;54.806;9.640;2022-08-03T00:54:38;17.95;;;6.55;;
71667;SDS011;59504;54.806;9.640;2022-08-03T00:56:38;15.13;;;5.53;;
71667;SDS011;59504;54.806;9.640;2022-08-03T00:58:40;11.05;;;5.80;;
71667;SDS011;59504;54.806;9.640;2022-08-03T01:00:43;19.38;;;6.53;;
71667;SDS011;59504;54.806;9.640;2022-08-03T01:02:44;9.73;;;5.60;;
71667;SDS011;59504;54.806;9.640;2022-08-03T01:04:45;9.45;;;5.60;;
71667;SDS011;59504;54.806;9.640;2022-08-03T01:06:49;9.40;;;6.28;;
71667;SDS011;59504;54.806;9.640;2022-08-03T01:09:02;11.73;;;6.00;;
71667;SDS011;59504;54.806;9.640;2022-08-03T01:11:49;12.30;;;5.72;;
71667;SDS011;59504;54.806;9.640;2022-08-03T01:13:56;13.93;;;5.63;;
71667;SDS011;59504;54.806;9.640;2022-08-03T01:16:22;12.77;;;6.05;;
71667;SDS011;59504;54.806;9.640;2022-08-03T01:18:35;15.13;;;5.90;;
71667;SDS011;59504;54.806;9.640;2022-08-03T01:20:44;12.63;;;5.80;;
71667;SDS011;59504;54.806;9.640;2022-08-03T01:27:22;12.65;;;6.10;;
71667;SDS011;59504;54.806;9.640;2022-08-03T01:29:35;13.13;;;5.97;;
71667;SDS011;59504;54.806;9.640;2022-08-03T01:31:56;16.83;;;6.22;;
71667;SDS011;59504;54.806;9.640;2022-08-03T01:34:02;11.98;;;5.97;;
71667;SDS011;59504;54.806;9.640;2022-08-03T01:36:15;12.48;;;6.20;;
71667;SDS011;59504;54.806;9.640;2022-08-03T01:38:25;16.98;;;6.18;;
71667;SDS011;59504;54.806;9.640;2022-08-03T01:40:28;9.13;;;5.55;;
71667;SDS011;59504;54.806;9.640;2022-08-03T01:42:31;12.45;;;6.05;;
71667;SDS011;59504;54.806;9.640;2022-08-03T01:44:34;9.07;;;5.82;;
71667;SDS011;59504;54.806;9.640;2022-08-03T01:46:37;14.45;;;5.65;;
71667;SDS011;59504;54.806;9.640;2022-08-03T01:48:39;13.23;;;6.47;;
71667;SDS011;59504;54.806;9.640;2022-08-03T01:50:42;13.70;;;5.95;;
71667;SDS011;59504;54.806;9.640;2022-08-03T01:52:45;13.25;;;6.22;;
71667;SDS011;59504;54.806;9.640;2022-08-03T01:54:48;14.00;;;6.07;;
71667;SDS011;59504;54.806;9.640;2022-08-03T01:56:51;15.77;;;5.82;;
71667;SDS011;59504;54.806;9.640;2022-08-03T01:58:55;15.52;;;5.72;;
71667;SDS011;59504;54.806;9.640;2022-08-03T02:00:57;14.10;;;6.68;;
71667;SDS011;59504;54.806;9.640;2022-08-03T02:03:00;11.77;;;6.43;;
71667;SDS011;59504;54.806;9.640;2022-08-03T02:05:05;17.02;;;6.18;;
71667;SDS011;59504;54.806;9.640;2022-08-03T02:07:08;13.43;;;6.38;;
71667;SDS011;59504;54.806;9.640;2022-08-03T02:09:11;12.32;;;6.50;;
71667;SDS011;59504;54.806;9.640;2022-08-03T02:11:13;16.35;;;6.32;;
71667;SDS011;59504;54.806;9.640;2022-08-03T02:13:14;19.10;;;6.15;;
71667;SDS011;59504;54.806;9.640;2022-08-03T02:15:17;20.45;;;7.22;;
71667;SDS011;59504;54.806;9.640;2022-08-03T02:17:18;19.35;;;7.00;;
71667;SDS011;59504;54.806;9.640;2022-08-03T02:19:20;16.90;;;6.45;;
71667;SDS011;59504;54.806;9.640;2022-08-03T02:23:25;12.43;;;6.25;;
71667;SDS011;59504;54.806;9.640;2022-08-03T02:25:26;12.45;;;6.50;;
71667;SDS011;59504;54.806;9.640;2022-08-03T02:27:29;18.38;;;6.85;;
71667;SDS011;59504;54.806;9.640;2022-08-03T02:29:35;14.52;;;6.47;;
71667;SDS011;59504;54.806;9.640;2022-08-03T02:33:41;12.23;;;6.13;;
71667;SDS011;59504;54.806;9.640;2022-08-03T02:35:46;14.18;;;6.40;;
71667;SDS011;59504;54.806;9.640;2022-08-03T02:37:49;10.90;;;6.10;;
71667;SDS011;59504;54.806;9.640;2022-08-03T02:39:52;15.30;;;6.82;;
71667;SDS011;59504;54.806;9.640;2022-08-03T02:42:00;13.77;;;6.93;;
71667;SDS011;59504;54.806;9.640;2022-08-03T02:44:02;12.23;;;7.15;;
71667;SDS011;59504;54.806;9.640;2022-08-03T02:46:08;14.38;;;7.15;;
71667;SDS011;59504;54.806;9.640;2022-08-03T02:48:15;13.30;;;6.40;;
71667;SDS011;59504;54.806;9.640;2022-08-03T02:50:19;18.15;;;6.53;;
71667;SDS011;59504;54.806;9.640;2022-08-03T02:52:22;11.43;;;6.07;;
71667;SDS011;59504;54.806;9.640;2022-08-03T02:54:28;15.65;;;6.82;;
71667;SDS011;59504;54.806;9.640;2022-08-03T02:56:31;14.50;;;6.97;;
71667;SDS011;59504;54.806;9.640;2022-08-03T02:58:33;12.68;;;6.75;;
71667;SDS011;59504;54.806;9.640;2022-08-03T03:00:34;15.82;;;6.95;;
71667;SDS011;59504;54.806;9.640;2022-08-03T03:02:36;12.55;;;6.93;;
71667;SDS011;59504;54.806;9.640;2022-08-03T03:04:39;10.00;;;6.60;;
71667;SDS011;59504;54.806;9.640;2022-08-03T03:06:41;15.07;;;6.88;;
71667;SDS011;59504;54.806;9.640;2022-08-03T03:08:43;12.75;;;6.43;;
71667;SDS011;59504;54.806;9.640;2022-08-03T03:10:44;11.32;;;6.68;;
71667;SDS011;59504;54.806;9.640;2022-08-03T03:12:46;11.15;;;7.50;;
71667;SDS011;59504;54.806;9.640;2022-08-03T03:14:50;19.10;;;6.53;;
71667;SDS011;59504;54.806;9.640;2022-08-03T03:16:50;15.07;;;6.88;;
71667;SDS011;59504;54.806;9.640;2022-08-03T03:18:52;15.90;;;6.38;;
71667;SDS011;59504;54.806;9.640;2022-08-03T03:20:53;13.07;;;6.47;;
71667;SDS011;59504;54.806;9.640;2022-08-03T03:22:55;13.32;;;7.15;;
71667;SDS011;59504;54.806;9.640;2022-08-03T03:26:59;16.52;;;6.40;;
71667;SDS011;59504;54.806;9.640;2022-08-03T03:29:01;13.75;;;6.18;;
71667;SDS011;59504;54.806;9.640;2022-08-03T03:31:02;11.25;;;7.03;;
71667;SDS011;59504;54.806;9.640;2022-08-03T03:33:05;11.20;;;6.93;;
71667;SDS011;59504;54.806;9.640;2022-08-03T03:35:06;10.75;;;6.45;;
71667;SDS011;59504;54.806;9.640;2022-08-03T03:37:08;15.00;;;6.80;;
71667;SDS011;59504;54.806;9.640;2022-08-03T03:39:09;14.48;;;7.13;;
71667;SDS011;59504;54.806;9.640;2022-08-03T03:41:11;13.88;;;6.57;;
71667;SDS011;59504;54.806;9.640;2022-08-03T03:43:12;11.00;;;7.00;;
71667;SDS011;59504;54.806;9.640;2022-08-03T03:45:12;11.25;;;6.47;;
71667;SDS011;59504;54.806;9.640;2022-08-03T03:47:14;12.07;;;6.40;;
71667;SDS011;59504;54.806;9.640;2022-08-03T03:49:15;10.52;;;7.03;;
71667;SDS011;59504;54.806;9.640;2022-08-03T03:51:15;8.68;;;6.00;;
71667;SDS011;59504;54.806;9.640;2022-08-03T03:53:17;13.40;;;7.00;;
71667;SDS011;59504;54.806;9.640;2022-08-03T03:55:17;14.57;;;6.70;;
71667;SDS011;59504;54.806;9.640;2022-08-03T03:57:18;9.73;;;6.20;;
71667;SDS011;59504;54.806;9.640;2022-08-03T03:59:19;9.98;;;6.75;;
71667;SDS011;59504;54.806;9.640;2022-08-03T04:01:19;9.52;;;6.45;;
71667;SDS011;59504;54.806;9.640;2022-08-03T04:03:20;13.13;;;7.63;;
71667;SDS011;59504;54.806;9.640;2022-08-03T04:05:21;28.20;;;7.10;;
71667;SDS011;59504;54.806;9.640;2022-08-03T04:07:49;12.63;;;6.28;;
71667;SDS011;59504;54.806;9.640;2022-08-03T04:10:17;14.55;;;6.50;;
71667;SDS011;59504;54.806;9.640;2022-08-03T04:12:40;12.85;;;6.60;;
71667;SDS011;59504;54.806;9.640;2022-08-03T04:14:42;15.93;;;7.20;;
71667;SDS011;59504;54.806;9.640;2022-08-03T04:16:46;13.63;;;6.25;;
71667;SDS011;59504;54.806;9.640;2022-08-03T04:18:58;13.23;;;6.70;;
71667;SDS011;59504;54.806;9.640;2022-08-03T04:21:02;10.52;;;7.07;;
71667;SDS011;59504;54.806;9.640;2022-08-03T04:23:09;11.93;;;6.85;;
71667;SDS011;59504;54.806;9.640;2022-08-03T04:27:19;14.40;;;7.32;;
71667;SDS011;59504;54.806;9.640;2022-08-03T04:29:22;10.95;;;6.47;;
71667;SDS011;59504;54.806;9.640;2022-08-03T04:31:25;14.23;;;7.17;;
71667;SDS011;59504;54.806;9.640;2022-08-03T04:33:27;15.27;;;6.95;;
71667;SDS011;59504;54.806;9.640;2022-08-03T04:35:33;11.75;;;6.75;;
71667;SDS011;59504;54.806;9.640;2022-08-03T04:37:39;13.85;;;8.07;;
71667;SDS011;59504;54.806;9.640;2022-08-03T04:39:48;9.53;;;6.97;;
71667;SDS011;59504;54.806;9.640;2022-08-03T04:41:51;13.20;;;5.90;;
71667;SDS011;59504;54.806;9.640;2022-08-03T04:43:55;12.90;;;6.80;;
71667;SDS011;59504;54.806;9.640;2022-08-03T04:47:59;11.80;;;5.60;;
71667;SDS011;59504;54.806;9.640;2022-08-03T04:50:00;20.42;;;7.03;;
71667;SDS011;59504;54.806;9.640;2022-08-03T04:52:03;14.77;;;5.72;;
71667;SDS011;59504;54.806;9.640;2022-08-03T04:54:06;11.02;;;6.63;;
71667;SDS011;59504;54.806;9.640;2022-08-03T04:56:15;10.48;;;6.65;;
71667;SDS011;59504;54.806;9.640;2022-08-03T04:58:15;15.00;;;6.00;;
71667;SDS011;59504;54.806;9.640;2022-08-03T05:00:16;17.13;;;6.18;;
71667;SDS011;59504;54.806;9.640;2022-08-03T05:02:17;13.00;;;6.10;;
71667;SDS011;59504;54.806;9.640;2022-08-03T05:04:18;31.08;;;5.82;;
71667;SDS011;59504;54.806;9.640;2022-08-03T05:06:19;12.85;;;5.80;;
71667;SDS011;59504;54.806;9.640;2022-08-03T05:08:20;11.55;;;5.18;;
71667;SDS011;59504;54.806;9.640;2022-08-03T05:10:20;15.40;;;6.07;;
71667;SDS011;59504;54.806;9.640;2022-08-03T05:12:21;11.23;;;5.75;;
71667;SDS011;59504;54.806;9.640;2022-08-03T05:14:22;12.02;;;5.00;;
71667;SDS011;59504;54.806;9.640;2022-08-03T05:16:23;11.70;;;4.78;;
71667;SDS011;59504;54.806;9.640;2022-08-03T05:18:24;11.73;;;4.32;;
71667;SDS011;59504;54.806;9.640;2022-08-03T05:20:25;13.70;;;5.15;;
71667;SDS011;59504;54.806;9.640;2022-08-03T05:22:26;14.60;;;4.40;;
71667;SDS011;59504;54.806;9.640;2022-08-03T05:24:26;14.75;;;4.78;;
71667;SDS011;59504;54.806;9.640;2022-08-03T05:26:27;9.68;;;4.10;;
71667;SDS011;59504;54.806;9.640;2022-08-03T05:28:27;8.57;;;4.47;;
71667;SDS011;59504;54.806;9.640;2022-08-03T05:30:28;9.23;;;4.30;;
71667;SDS011;59504;54.806;9.640;2022-08-03T05:32:29;11.18;;;3.75;;
71667;SDS011;59504;54.806;9.640;2022-08-03T05:34:29;9.73;;;4.22;;
71667;SDS011;59504;54.806;9.640;2022-08-03T05:36:30;14.75;;;3.95;;
71667;SDS011;59504;54.806;9.640;2022-08-03T05:38:31;8.18;;;3.45;;
71667;SDS011;59504;54.806;9.640;2022-08-03T05:40:32;10.70;;;3.70;;
71667;SDS011;59504;54.806;9.640;2022-08-03T05:42:33;10.63;;;4.03;;
71667;SDS011;59504;54.806;9.640;2022-08-03T05:44:36;10.10;;;3.70;;
71667;SDS011;59504;54.806;9.640;2022-08-03T05:46:41;11.05;;;3.47;;
71667;SDS011;59504;54.806;9.640;2022-08-03T05:48:41;7.45;;;3.60;;
71667;SDS011;59504;54.806;9.640;2022-08-03T05:50:42;9.23;;;3.88;;
71667;SDS011;59504;54.806;9.640;2022-08-03T05:52:43;14.95;;;4.05;;
71667;SDS011;59504;54.806;9.640;2022-08-03T05:54:43;14.35;;;4.15;;
71667;SDS011;59504;54.806;9.640;2022-08-03T05:56:44;11.52;;;3.72;;
71667;SDS011;59504;54.806;9.640;2022-08-03T05:58:45;6.43;;;3.55;;
71667;SDS011;59504;54.806;9.640;2022-08-03T06:00:46;8.48;;;4.18;;
71667;SDS011;59504;54.806;9.640;2022-08-03T06:02:47;8.93;;;3.42;;
71667;SDS011;59504;54.806;9.640;2022-08-03T06:04:47;9.43;;;3.53;;
71667;SDS011;59504;54.806;9.640;2022-08-03T06:06:48;10.23;;;3.85;;
71667;SDS011;59504;54.806;9.640;2022-08-03T06:08:49;6.82;;;3.45;;
71667;SDS011;59504;54.806;9.640;2022-08-03T06:10:50;6.40;;;3.65;;
71667;SDS011;59504;54.806;9.640;2022-08-03T06:12:51;6.82;;;3.38;;
71667;SDS011;59504;54.806;9.640;2022-08-03T06:14:51;10.88;;;3.92;;
71667;SDS011;59504;54.806;9.640;2022-08-03T06:16:52;8.40;;;3.88;;
71667;SDS011;59504;54.806;9.640;2022-08-03T06:18:53;9.27;;;3.70;;
71667;SDS011;59504;54.806;9.640;2022-08-03T06:20:54;8.85;;;3.60;;
71667;SDS011;59504;54.806;9.640;2022-08-03T06:22:54;15.05;;;4.00;;
71667;SDS011;59504;54.806;9.640;2022-08-03T06:24:56;15.27;;;4.18;;
71667;SDS011;59504;54.806;9.640;2022-08-03T06:26:58;38.40;;;7.40;;
71667;SDS011;59504;54.806;9.640;2022-08-03T06:28:58;38.03;;;8.63;;
71667;SDS011;59504;54.806;9.640;2022-08-03T06:30:59;50.20;;;10.77;;
71667;SDS011;59504;54.806;9.640;2022-08-03T06:33:00;31.48;;;7.35;;
71667;SDS011;59504;54.806;9.640;2022-08-03T06:35:01;12.13;;;3.65;;
71667;SDS011;59504;54.806;9.640;2022-08-03T06:37:02;7.55;;;3.00;;
71667;SDS011;59504;54.806;9.640;2022-08-03T06:39:03;12.32;;;3.38;;
71667;SDS011;59504;54.806;9.640;2022-08-03T06:41:07;7.97;;;2.80;;
71667;SDS011;59504;54.806;9.640;2022-08-03T06:43:08;6.55;;;3.15;;
71667;SDS011;59504;54.806;9.640;2022-08-03T06:45:09;7.75;;;2.90;;
71667;SDS011;59504;54.806;9.640;2022-08-03T06:47:10;14.77;;;3.40;;
71667;SDS011;59504;54.806;9.640;2022-08-03T06:49:10;9.35;;;2.90;;
71667;SDS011;59504;54.806;9.640;2022-08-03T06:51:11;8.10;;;2.75;;
71667;SDS011;59504;54.806;9.640;2022-08-03T06:53:12;12.85;;;3.20;;
71667;SDS011;59504;54.806;9.640;2022-08-03T06:55:13;8.82;;;2.50;;
71667;SDS011;59504;54.806;9.640;2022-08-03T06:57:13;7.85;;;2.60;;
71667;SDS011;59504;54.806;9.640;2022-08-03T06:59:15;14.55;;;2.75;;
71667;SDS011;59504;54.806;9.640;2022-08-03T07:01:16;9.50;;;1.92;;
71667;SDS011;59504;54.806;9.640;2022-08-03T07:03:17;7.13;;;2.35;;
71667;SDS011;59504;54.806;9.640;2022-08-03T07:05:17;6.35;;;2.05;;
71667;SDS011;59504;54.806;9.640;2022-08-03T07:07:19;7.38;;;1.85;;
71667;SDS011;59504;54.806;9.640;2022-08-03T07:09:20;5.05;;;1.80;;
71667;SDS011;59504;54.806;9.640;2022-08-03T07:11:21;8.48;;;1.65;;
71667;SDS011;59504;54.806;9.640;2022-08-03T07:13:25;10.10;;;1.75;;
71667;SDS011;59504;54.806;9.640;2022-08-03T07:15:25;8.52;;;1.80;;
71667;SDS011;59504;54.806;9.640;2022-08-03T07:17:27;6.20;;;1.90;;
71667;SDS011;59504;54.806;9.640;2022-08-03T07:19:29;3.50;;;1.60;;
71667;SDS011;59504;54.806;9.640;2022-08-03T07:21:29;4.10;;;1.58;;
71667;SDS011;59504;54.806;9.640;2022-08-03T07:23:30;9.40;;;1.98;;
71667;SDS011;59504;54.806;9.640;2022-08-03T07:25:31;7.80;;;1.45;;
71667;SDS011;59504;54.806;9.640;2022-08-03T07:27:31;4.30;;;1.88;;
71667;SDS011;59504;54.806;9.640;2022-08-03T07:29:35;13.07;;;2.15;;
71667;SDS011;59504;54.806;9.640;2022-08-03T07:31:37;4.93;;;1.40;;
71667;SDS011;59504;54.806;9.640;2022-08-03T07:33:37;3.25;;;1.73;;
71667;SDS011;59504;54.806;9.640;2022-08-03T07:35:38;13.10;;;1.75;;
71667;SDS011;59504;54.806;9.640;2022-08-03T07:37:38;4.72;;;1.35;;
71667;SDS011;59504;54.806;9.640;2022-08-03T07:39:39;9.05;;;1.77;;
71667;SDS011;59504;54.806;9.640;2022-08-03T07:41:40;6.40;;;1.63;;
71667;SDS011;59504;54.806;9.640;2022-08-03T07:43:40;6.60;;;1.80;;
71667;SDS011;59504;54.806;9.640;2022-08-03T07:45:41;8.13;;;1.85;;
71667;SDS011;59504;54.806;9.640;2022-08-03T07:47:41;9.23;;;1.90;;
71667;SDS011;59504;54.806;9.640;2022-08-03T07:49:42;7.85;;;1.70;;
71667;SDS011;59504;54.806;9.640;2022-08-03T07:51:43;14.05;;;2.60;;
71667;SDS011;59504;54.806;9.640;2022-08-03T07:53:44;19.90;;;2.42;;
71667;SDS011;59504;54.806;9.640;2022-08-03T07:55:48;8.23;;;1.48;;
71667;SDS011;59504;54.806;9.640;2022-08-03T08:00:15;8.88;;;2.78;;
71667;SDS011;59504;54.806;9.640;2022-08-03T08:02:17;8.00;;;1.90;;
71667;SDS011;59504;54.806;9.640;2022-08-03T08:04:21;8.30;;;2.20;;
71667;SDS011;59504;54.806;9.640;2022-08-03T08:06:22;6.82;;;2.25;;
71667;SDS011;59504;54.806;9.640;2022-08-03T08:08:22;7.75;;;2.35;;
71667;SDS011;59504;54.806;9.640;2022-08-03T08:10:41;13.40;;;1.70;;
71667;SDS011;59504;54.806;9.640;2022-08-03T08:12:42;11.40;;;1.85;;
71667;SDS011;59504;54.806;9.640;2022-08-03T08:14:43;10.95;;;1.70;;
71667;SDS011;59504;54.806;9.640;2022-08-03T08:16:49;12.98;;;1.48;;
71667;SDS011;59504;54.806;9.640;2022-08-03T08:18:50;5.07;;;1.33;;
71667;SDS011;59504;54.806;9.640;2022-08-03T08:20:50;11.95;;;1.45;;
71667;SDS011;59504;54.806;9.640;2022-08-03T08:22:51;6.22;;;1.52;;
71667;SDS011;59504;54.806;9.640;2022-08-03T08:24:53;9.23;;;1.50;;
71667;SDS011;59504;54.806;9.640;2022-08-03T08:26:55;11.50;;;1.70;;
71667;SDS011;59504;54.806;9.640;2022-08-03T08:28:55;8.63;;;1.50;;
71667;SDS011;59504;54.806;9.640;2022-08-03T08:30:56;3.30;;;1.25;;
71667;SDS011;59504;54.806;9.640;2022-08-03T08:32:57;4.95;;;1.38;;
71667;SDS011;59504;54.806;9.640;2022-08-03T08:34:58;7.82;;;1.70;;
71667;SDS011;59504;54.806;9.640;2022-08-03T08:36:59;4.25;;;1.17;;
71667;SDS011;59504;54.806;9.640;2022-08-03T08:39:00;7.07;;;1.90;;
71667;SDS011;59504;54.806;9.640;2022-08-03T08:41:01;8.57;;;1.58;;
71667;SDS011;59504;54.806;9.640;2022-08-03T08:43:02;5.75;;;1.65;;
71667;SDS011;59504;54.806;9.640;2022-08-03T08:45:03;9.07;;;1.58;;
71667;SDS011;59504;54.806;9.640;2022-08-03T08:47:05;8.10;;;1.42;;
71667;SDS011;59504;54.806;9.640;2022-08-03T08:49:08;11.02;;;1.83;;
71667;SDS011;59504;54.806;9.640;2022-08-03T08:51:10;8.40;;;1.98;;
71667;SDS011;59504;54.806;9.640;2022-08-03T08:53:12;9.23;;;1.40;;
71667;SDS011;59504;54.806;9.640;2022-08-03T08:55:20;6.13;;;1.60;;
71667;SDS011;59504;54.806;9.640;2022-08-03T08:57:23;11.75;;;2.22;;
71667;SDS011;59504;54.806;9.640;2022-08-03T08:59:28;9.80;;;1.95;;
71667;SDS011;59504;54.806;9.640;2022-08-03T09:01:31;5.95;;;1.35;;
71667;SDS011;59504;54.806;9.640;2022-08-03T09:03:32;12.00;;;1.65;;
71667;SDS011;59504;54.806;9.640;2022-08-03T09:05:33;6.72;;;1.52;;
71667;SDS011;59504;54.806;9.640;2022-08-03T09:07:34;9.23;;;1.80;;
71667;SDS011;59504;54.806;9.640;2022-08-03T09:09:35;7.35;;;1.75;;
71667;SDS011;59504;54.806;9.640;2022-08-03T09:11:35;10.75;;;2.42;;
71667;SDS011;59504;54.806;9.640;2022-08-03T09:13:36;7.28;;;1.90;;
71667;SDS011;59504;54.806;9.640;2022-08-03T09:15:37;7.38;;;2.05;;
71667;SDS011;59504;54.806;9.640;2022-08-03T09:17:41;5.03;;;1.75;;
71667;SDS011;59504;54.806;9.640;2022-08-03T09:19:42;15.23;;;2.20;;
71667;SDS011;59504;54.806;9.640;2022-08-03T09:21:43;6.60;;;1.45;;
71667;SDS011;59504;54.806;9.640;2022-08-03T09:23:44;6.05;;;1.85;;
71667;SDS011;59504;54.806;9.640;2022-08-03T09:25:45;4.05;;;1.50;;
71667;SDS011;59504;54.806;9.640;2022-08-03T09:27:46;8.05;;;1.85;;
71667;SDS011;59504;54.806;9.640;2022-08-03T09:29:48;8.13;;;1.80;;
71667;SDS011;59504;54.806;9.640;2022-08-03T09:31:59;8.15;;;1.85;;
71667;SDS011;59504;54.806;9.640;2022-08-03T09:34:04;6.72;;;1.80;;
71667;SDS011;59504;54.806;9.640;2022-08-03T09:36:32;5.90;;;1.98;;
71667;SDS011;59504;54.806;9.640;2022-08-03T09:38:38;3.53;;;1.40;;
71667;SDS011;59504;54.806;9.640;2022-08-03T09:40:39;7.28;;;1.75;;
71667;SDS011;59504;54.806;9.640;2022-08-03T09:42:54;2.30;;;1.30;;
71667;SDS011;59504;54.806;9.640;2022-08-03T09:44:55;4.90;;;1.58;;
71667;SDS011;59504;54.806;9.640;2022-08-03T09:46:57;5.80;;;1.65;;
71667;SDS011;59504;54.806;9.640;2022-08-03T09:49:10;7.40;;;1.60;;
71667;SDS011;59504;54.806;9.640;2022-08-03T09:51:11;7.63;;;1.58;;
71667;SDS011;59504;54.806;9.640;2022-08-03T09:53:14;10.95;;;1.70;;
71667;SDS011;59504;54.806;9.640;2022-08-03T09:55:15;4.95;;;1.33;;
71667;SDS011;59504;54.806;9.640;2022-08-03T09:57:24;12.02;;;1.48;;
71667;SDS011;59504;54.806;9.640;2022-08-03T09:59:27;9.00;;;1.58;;
71667;SDS011;59504;54.806;9.640;2022-08-03T10:01:32;7.95;;;1.60;;
71667;SDS011;59504;54.806;9.640;2022-08-03T10:03:36;3.60;;;1.23;;
71667;SDS011;59504;54.806;9.640;2022-08-03T10:05:38;8.07;;;1.30;;
71667;SDS011;59504;54.806;9.640;2022-08-03T10:07:44;9.65;;;1.50;;
71667;SDS011;59504;54.806;9.640;2022-08-03T10:09:58;4.97;;;1.40;;
71667;SDS011;59504;54.806;9.640;2022-08-03T10:12:10;7.32;;;1.88;;
71667;SDS011;59504;54.806;9.640;2022-08-03T10:14:14;7.75;;;1.50;;
71667;SDS011;59504;54.806;9.640;2022-08-03T10:16:18;4.75;;;1.38;;
71667;SDS011;59504;54.806;9.640;2022-08-03T10:18:19;3.83;;;1.35;;
71667;SDS011;59504;54.806;9.640;2022-08-03T10:20:19;7.43;;;1.48;;
71667;SDS011;59504;54.806;9.640;2022-08-03T10:22:25;3.92;;;1.00;;
71667;SDS011;59504;54.806;9.640;2022-08-03T10:24:28;5.35;;;1.23;;
71667;SDS011;59504;54.806;9.640;2022-08-03T10:26:34;3.95;;;1.48;;
71667;SDS011;59504;54.806;9.640;2022-08-03T10:28:39;7.65;;;1.30;;
71667;SDS011;59504;54.806;9.640;2022-08-03T10:30:49;3.67;;;1.23;;
71667;SDS011;59504;54.806;9.640;2022-08-03T10:32:54;9.63;;;1.83;;
71667;SDS011;59504;54.806;9.640;2022-08-03T10:35:03;5.20;;;1.98;;
71667;SDS011;59504;54.806;9.640;2022-08-03T10:37:11;5.18;;;1.55;;
71667;SDS011;59504;54.806;9.640;2022-08-03T10:39:14;4.93;;;1.83;;
71667;SDS011;59504;54.806;9.640;2022-08-03T10:41:21;7.25;;;1.90;;
71667;SDS011;59504;54.806;9.640;2022-08-03T10:43:25;6.65;;;1.70;;
71667;SDS011;59504;54.806;9.640;2022-08-03T10:45:31;7.07;;;1.40;;
71667;SDS011;59504;54.806;9.640;2022-08-03T10:47:35;9.07;;;2.10;;
71667;SDS011;59504;54.806;9.640;2022-08-03T10:49:36;4.80;;;1.42;;
71667;SDS011;59504;54.806;9.640;2022-08-03T10:51:38;5.47;;;1.23;;
71667;SDS011;59504;54.806;9.640;2022-08-03T10:53:40;6.63;;;1.50;;
71667;SDS011;59504;54.806;9.640;2022-08-03T10:55:43;4.07;;;1.35;;
71667;SDS011;59504;54.806;9.640;2022-08-03T11:00:07;7.07;;;1.30;;
71667;SDS011;59504;54.806;9.640;2022-08-03T11:02:09;7.22;;;1.50;;
71667;SDS011;59504;54.806;9.640;2022-08-03T11:04:15;5.88;;;1.50;;
71667;SDS011;59504;54.806;9.640;2022-08-03T11:06:18;9.38;;;2.80;;
71667;SDS011;59504;54.806;9.640;2022-08-03T11:08:21;11.95;;;1.48;;
71667;SDS011;59504;54.806;9.640;2022-08-03T11:10:28;7.57;;;1.63;;
71667;SDS011;59504;54.806;9.640;2022-08-03T11:12:31;3.08;;;1.00;;
71667;SDS011;59504;54.806;9.640;2022-08-03T11:14:43;11.05;;;1.60;;
71667;SDS011;59504;54.806;9.640;2022-08-03T11:16:47;5.32;;;1.83;;
71667;SDS011;59504;54.806;9.640;2022-08-03T11:20:59;7.75;;;1.42;;
71667;SDS011;59504;54.806;9.640;2022-08-03T11:23:00;5.28;;;1.67;;
71667;SDS011;59504;54.806;9.640;2022-08-03T11:25:01;3.83;;;1.42;;
71667;SDS011;59504;54.806;9.640;2022-08-03T11:29:29;9.73;;;1.60;;
71667;SDS011;59504;54.806;9.640;2022-08-03T11:33:31;5.88;;;1.55;;
71667;SDS011;59504;54.806;9.640;2022-08-03T11:35:32;4.45;;;1.35;;
71667;SDS011;59504;54.806;9.640;2022-08-03T11:40:02;4.97;;;1.35;;
71667;SDS011;59504;54.806;9.640;2022-08-03T11:44:39;5.88;;;1.20;;
71667;SDS011;59504;54.806;9.640;2022-08-03T11:46:40;3.75;;;1.10;;
71667;SDS011;59504;54.806;9.640;2022-08-03T11:48:42;5.45;;;1.50;;
71667;SDS011;59504;54.806;9.640;2022-08-03T11:50:46;6.10;;;1.10;;
71667;SDS011;59504;54.806;9.640;2022-08-03T11:52:47;4.47;;;1.40;;
71667;SDS011;59504;54.806;9.640;2022-08-03T11:54:51;5.57;;;1.38;;
71667;SDS011;59504;54.806;9.640;2022-08-03T11:56:53;9.05;;;1.70;;
71667;SDS011;59504;54.806;9.640;2022-08-03T11:58:54;7.30;;;1.60;;
71667;SDS011;59504;54.806;9.640;2022-08-03T12:01:05;7.72;;;1.55;;
71667;SDS011;59504;54.806;9.640;2022-08-03T12:03:13;7.28;;;1.55;;
71667;SDS011;59504;54.806;9.640;2022-08-03T12:05:15;10.30;;;1.67;;
71667;SDS011;59504;54.806;9.640;2022-08-03T12:07:16;6.07;;;1.20;;
71667;SDS011;59504;54.806;9.640;2022-08-03T12:09:17;4.22;;;1.40;;
71667;SDS011;59504;54.806;9.640;2022-08-03T12:11:18;5.95;;;1.35;;
71667;SDS011;59504;54.806;9.640;2022-08-03T12:13:19;9.20;;;1.20;;
71667;SDS011;59504;54.806;9.640;2022-08-03T12:15:28;3.80;;;1.00;;
71667;SDS011;59504;54.806;9.640;2022-08-03T12:17:33;5.90;;;1.70;;
71667;SDS011;59504;54.806;9.640;2022-08-03T12:19:43;9.43;;;1.70;;
71667;SDS011;59504;54.806;9.640;2022-08-03T12:21:46;8.80;;;1.95;;
71667;SDS011;59504;54.806;9.640;2022-08-03T12:23:49;8.43;;;1.40;;
71667;SDS011;59504;54.806;9.640;2022-08-03T12:25:59;14.70;;;1.67;;
71667;SDS011;59504;54.806;9.640;2022-08-03T12:28:14;12.23;;;1.85;;
71667;SDS011;59504;54.806;9.640;2022-08-03T12:30:22;9.18;;;1.80;;
71667;SDS011;59504;54.806;9.640;2022-08-03T12:32:23;7.35;;;1.30;;
71667;SDS011;59504;54.806;9.640;2022-08-03T12:34:43;8.68;;;1.95;;
71667;SDS011;59504;54.806;9.640;2022-08-03T12:36:51;5.65;;;1.50;;
71667;SDS011;59504;54.806;9.640;2022-08-03T12:38:58;12.68;;;2.17;;
71667;SDS011;59504;54.806;9.640;2022-08-03T12:41:02;4.72;;;1.40;;
71667;SDS011;59504;54.806;9.640;2022-08-03T12:43:11;5.40;;;1.50;;
71667;SDS011;59504;54.806;9.640;2022-08-03T12:45:20;3.95;;;1.20;;
71667;SDS011;59504;54.806;9.640;2022-08-03T12:49:27;4.80;;;1.27;;